sensor_id;sensor_type;location;lat;lon;timestamp;pressure;altitude;pressure_sealevel;temperature;humidity
54455;BME280;40364;52.270;10.546;2024-02-21T00:01:07;101102.97;;;23.78;37.95
54455;BME280;40364;52.270;10.546;2024-02-21T00:06:00;101091.84;;;24.32;36.48
54455;BME280;40364;52.270;10.546;2024-02-21T00:08:27;101089.41;;;23.93;36.53
54455;BME280;40364;52.270;10.546;2024-02-21T00:10:53;101089.81;;;23.54;36.58
54455;BME280;40364;52.270;10.546;2024-02-21T00:13:20;101088.97;;;22.18;40.07
54455;BME280;40364;52.270;10.546;2024-02-21T00:15:47;101093.44;;;22.99;38.17
54455;BME280;40364;52.270;10.546;2024-02-21T00:18:15;101076.72;;;23.12;38.35
54455;BME280;40364;52.270;10.546;2024-02-21T00:20:42;101081.72;;;22.03;39.79
54455;BME280;40364;52.270;10.546;2024-02-21T00:23:08;101088.34;;;23.28;37.42
54455;BME280;40364;52.270;10.546;2024-02-21T00:25:35;101085.22;;;23.15;37.45
54455;BME280;40364;52.270;10.546;2024-02-21T00:28:02;101078.41;;;22.22;39.54
54455;BME280;40364;52.270;10.546;2024-02-21T00:30:29;101081.34;;;21.79;39.99
54455;BME280;40364;52.270;10.546;2024-02-21T00:32:56;101084.28;;;22.67;38.27
54455;BME280;40364;52.270;10.546;2024-02-21T00:35:25;101073.66;;;22.89;38.68
54455;BME280;40364;52.270;10.546;2024-02-21T00:37:51;101071.81;;;23.20;38.04
54455;BME280;40364;52.270;10.546;2024-02-21T00:40:18;101067.16;;;21.83;39.65
54455;BME280;40364;52.270;10.546;2024-02-21T00:42:47;101064.53;;;23.15;37.47
54455;BME280;40364;52.270;10.546;2024-02-21T00:45:14;101058.13;;;22.27;38.64
54455;BME280;40364;52.270;10.546;2024-02-21T00:47:40;101066.41;;;21.68;39.79
54455;BME280;40364;52.270;10.546;2024-02-21T00:50:08;101059.75;;;22.32;39.87
54455;BME280;40364;52.270;10.546;2024-02-21T00:52:36;101060.16;;;25.14;35.30
54455;BME280;40364;52.270;10.546;2024-02-21T00:55:04;101056.88;;;23.94;35.92
54455;BME280;40364;52.270;10.546;2024-02-21T00:57:31;101053.63;;;23.06;37.09
54455;BME280;40364;52.270;10.546;2024-02-21T00:59:58;101048.00;;;25.10;34.18
54455;BME280;40364;52.270;10.546;2024-02-21T01:02:24;101043.50;;;23.54;36.04
54455;BME280;40364;52.270;10.546;2024-02-21T01:04:51;101038.66;;;23.47;36.78
54455;BME280;40364;52.270;10.546;2024-02-21T01:07:18;101044.00;;;23.41;36.34
54455;BME280;40364;52.270;10.546;2024-02-21T01:09:46;101034.13;;;24.85;34.51
54455;BME280;40364;52.270;10.546;2024-02-21T01:12:12;101036.63;;;22.99;37.10
54455;BME280;40364;52.270;10.546;2024-02-21T01:14:39;101022.31;;;23.58;36.17
54455;BME280;40364;52.270;10.546;2024-02-21T01:17:06;101028.53;;;24.17;35.25
54455;BME280;40364;52.270;10.546;2024-02-21T01:19:32;101022.88;;;22.28;38.22
54455;BME280;40364;52.270;10.546;2024-02-21T01:21:59;101024.88;;;22.31;37.97
54455;BME280;40364;52.270;10.546;2024-02-21T01:24:25;101030.91;;;22.40;38.01
54455;BME280;40364;52.270;10.546;2024-02-21T01:26:53;101017.41;;;23.62;37.48
54455;BME280;40364;52.270;10.546;2024-02-21T01:29:20;101023.34;;;22.12;38.48
54455;BME280;40364;52.270;10.546;2024-02-21T01:31:47;101016.34;;;22.97;37.71
54455;BME280;40364;52.270;10.546;2024-02-21T01:34:14;101011.09;;;24.15;35.26
54455;BME280;40364;52.270;10.546;2024-02-21T01:36:41;101002.72;;;24.89;33.81
54455;BME280;40364;52.270;10.546;2024-02-21T01:39:07;101002.84;;;23.12;37.10
54455;BME280;40364;52.270;10.546;2024-02-21T01:41:34;101002.84;;;23.12;37.39
54455;BME280;40364;52.270;10.546;2024-02-21T01:44:02;101001.13;;;24.88;35.43
54455;BME280;40364;52.270;10.546;2024-02-21T01:46:29;100993.88;;;23.58;36.80
54455;BME280;40364;52.270;10.546;2024-02-21T01:48:56;100991.66;;;22.28;38.70
54455;BME280;40364;52.270;10.546;2024-02-21T01:51:23;100992.41;;;23.43;37.41
54455;BME280;40364;52.270;10.546;2024-02-21T01:53:51;100992.59;;;24.00;36.18
54455;BME280;40364;52.270;10.546;2024-02-21T01:56:18;101004.88;;;24.28;35.33
54455;BME280;40364;52.270;10.546;2024-02-21T01:58:46;100991.00;;;23.21;37.82
54455;BME280;40364;52.270;10.546;2024-02-21T02:01:16;100989.22;;;23.37;38.07
54455;BME280;40364;52.270;10.546;2024-02-21T02:03:45;100985.63;;;24.89;35.00
54455;BME280;40364;52.270;10.546;2024-02-21T02:06:12;100983.72;;;23.20;38.39
54455;BME280;40364;52.270;10.546;2024-02-21T02:08:39;100980.38;;;24.34;35.74
54455;BME280;40364;52.270;10.546;2024-02-21T02:11:06;100973.94;;;23.96;36.38
54455;BME280;40364;52.270;10.546;2024-02-21T02:13:33;100972.41;;;22.61;38.10
54455;BME280;40364;52.270;10.546;2024-02-21T02:16:00;100963.19;;;22.42;39.03
54455;BME280;40364;52.270;10.546;2024-02-21T02:18:28;100960.47;;;23.69;37.38
54455;BME280;40364;52.270;10.546;2024-02-21T02:20:54;100961.34;;;22.11;38.73
54455;BME280;40364;52.270;10.546;2024-02-21T02:23:24;100951.50;;;22.92;39.12
54455;BME280;40364;52.270;10.546;2024-02-21T02:25:51;100952.56;;;23.05;37.32
54455;BME280;40364;52.270;10.546;2024-02-21T02:28:18;100947.19;;;23.90;36.25
54455;BME280;40364;52.270;10.546;2024-02-21T02:30:45;100946.97;;;22.95;37.70
54455;BME280;40364;52.270;10.546;2024-02-21T02:33:12;100937.75;;;22.25;38.84
54455;BME280;40364;52.270;10.546;2024-02-21T02:35:39;100940.94;;;21.39;39.93
54455;BME280;40364;52.270;10.546;2024-02-21T02:38:06;100934.09;;;22.28;38.62
54455;BME280;40364;52.270;10.546;2024-02-21T02:40:34;100916.28;;;22.82;38.48
54455;BME280;40364;52.270;10.546;2024-02-21T02:43:01;100928.50;;;23.21;36.97
54455;BME280;40364;52.270;10.546;2024-02-21T02:45:28;100926.72;;;21.50;39.35
54455;BME280;40364;52.270;10.546;2024-02-21T02:47:56;100923.88;;;21.50;39.94
54455;BME280;40364;52.270;10.546;2024-02-21T02:50:23;100916.25;;;21.18;41.00
54455;BME280;40364;52.270;10.546;2024-02-21T02:52:50;100917.13;;;22.17;38.29
54455;BME280;40364;52.270;10.546;2024-02-21T02:55:16;100904.59;;;20.74;41.24
54455;BME280;40364;52.270;10.546;2024-02-21T02:57:45;100893.06;;;21.66;40.57
54455;BME280;40364;52.270;10.546;2024-02-21T03:00:12;100883.28;;;21.74;40.02
54455;BME280;40364;52.270;10.546;2024-02-21T03:02:40;100879.47;;;22.09;38.55
54455;BME280;40364;52.270;10.546;2024-02-21T03:05:12;100870.78;;;23.92;35.72
54455;BME280;40364;52.270;10.546;2024-02-21T03:07:39;100882.28;;;23.13;35.96
54455;BME280;40364;52.270;10.546;2024-02-21T03:10:06;100882.69;;;21.28;40.03
54455;BME280;40364;52.270;10.546;2024-02-21T03:12:33;100869.22;;;21.49;39.23
54455;BME280;40364;52.270;10.546;2024-02-21T03:15:01;100863.66;;;22.12;39.53
54455;BME280;40364;52.270;10.546;2024-02-21T03:17:28;100849.69;;;22.87;37.16
54455;BME280;40364;52.270;10.546;2024-02-21T03:19:55;100858.00;;;21.10;39.77
54455;BME280;40364;52.270;10.546;2024-02-21T03:22:21;100847.06;;;21.16;40.37
54455;BME280;40364;52.270;10.546;2024-02-21T03:24:48;100850.34;;;22.57;37.65
54455;BME280;40364;52.270;10.546;2024-02-21T03:27:15;100847.34;;;22.30;37.96
54455;BME280;40364;52.270;10.546;2024-02-21T03:29:42;100849.56;;;20.82;41.20
54455;BME280;40364;52.270;10.546;2024-02-21T03:32:10;100844.63;;;21.14;41.01
54455;BME280;40364;52.270;10.546;2024-02-21T03:34:37;100842.78;;;21.74;38.39
54455;BME280;40364;52.270;10.546;2024-02-21T03:37:03;100832.50;;;21.17;39.87
54455;BME280;40364;52.270;10.546;2024-02-21T03:39:31;100840.03;;;22.74;38.10
54455;BME280;40364;52.270;10.546;2024-02-21T03:41:58;100838.16;;;21.14;39.39
54455;BME280;40364;52.270;10.546;2024-02-21T03:44:26;100822.16;;;22.80;36.76
54455;BME280;40364;52.270;10.546;2024-02-21T03:46:53;100821.88;;;21.43;39.03
54455;BME280;40364;52.270;10.546;2024-02-21T03:49:21;100821.94;;;23.36;36.87
54455;BME280;40364;52.270;10.546;2024-02-21T03:51:47;100816.56;;;21.59;38.93
54455;BME280;40364;52.270;10.546;2024-02-21T03:54:14;100822.16;;;23.82;35.26
54455;BME280;40364;52.270;10.546;2024-02-21T03:56:41;100817.34;;;21.63;38.26
54455;BME280;40364;52.270;10.546;2024-02-21T03:59:08;100802.16;;;21.25;39.65
54455;BME280;40364;52.270;10.546;2024-02-21T04:01:35;100798.75;;;23.07;36.57
54455;BME280;40364;52.270;10.546;2024-02-21T04:04:01;100796.97;;;20.95;40.35
54455;BME280;40364;52.270;10.546;2024-02-21T04:06:30;100771.56;;;22.65;37.83
54455;BME280;40364;52.270;10.546;2024-02-21T04:08:57;100764.53;;;21.91;39.01
54455;BME280;40364;52.270;10.546;2024-02-21T04:11:24;100778.47;;;22.26;37.38
54455;BME280;40364;52.270;10.546;2024-02-21T04:13:50;100783.72;;;21.65;38.67
54455;BME280;40364;52.270;10.546;2024-02-21T04:16:17;100790.28;;;21.48;39.32
54455;BME280;40364;52.270;10.546;2024-02-21T04:18:44;100784.44;;;22.80;36.14
54455;BME280;40364;52.270;10.546;2024-02-21T04:21:14;100791.97;;;23.89;35.50
54455;BME280;40364;52.270;10.546;2024-02-21T04:23:43;100801.03;;;23.83;35.55
54455;BME280;40364;52.270;10.546;2024-02-21T04:26:10;100809.09;;;21.90;37.64
54455;BME280;40364;52.270;10.546;2024-02-21T04:28:37;100805.63;;;21.61;38.22
54455;BME280;40364;52.270;10.546;2024-02-21T04:31:04;100806.13;;;22.08;37.94
54455;BME280;40364;52.270;10.546;2024-02-21T04:33:30;100789.34;;;23.13;36.15
54455;BME280;40364;52.270;10.546;2024-02-21T04:35:57;100804.41;;;22.25;36.91
54455;BME280;40364;52.270;10.546;2024-02-21T04:38:26;100818.41;;;21.87;37.03
54455;BME280;40364;52.270;10.546;2024-02-21T04:40:55;100816.53;;;23.79;34.52
54455;BME280;40364;52.270;10.546;2024-02-21T04:43:23;100818.56;;;22.73;36.42
54455;BME280;40364;52.270;10.546;2024-02-21T04:45:50;100817.41;;;22.22;36.42
54455;BME280;40364;52.270;10.546;2024-02-21T04:48:18;100823.53;;;23.98;33.75
54455;BME280;40364;52.270;10.546;2024-02-21T04:50:45;100814.69;;;23.92;33.86
54455;BME280;40364;52.270;10.546;2024-02-21T04:53:12;100809.59;;;23.49;34.51
54455;BME280;40364;52.270;10.546;2024-02-21T04:55:38;100808.34;;;21.79;37.08
54455;BME280;40364;52.270;10.546;2024-02-21T04:58:06;100797.72;;;23.85;35.15
54455;BME280;40364;52.270;10.546;2024-02-21T05:00:34;100783.09;;;22.50;36.46
54455;BME280;40364;52.270;10.546;2024-02-21T05:03:00;100785.19;;;22.88;35.73
54455;BME280;40364;52.270;10.546;2024-02-21T05:07:53;100801.16;;;23.73;33.99
54455;BME280;40364;52.270;10.546;2024-02-21T05:10:20;100808.69;;;24.83;32.15
54455;BME280;40364;52.270;10.546;2024-02-21T05:12:46;100801.69;;;24.88;31.68
54455;BME280;40364;52.270;10.546;2024-02-21T05:15:15;100809.13;;;24.82;32.80
54455;BME280;40364;52.270;10.546;2024-02-21T05:17:41;100808.03;;;24.52;32.23
54455;BME280;40364;52.270;10.546;2024-02-21T05:20:09;100809.69;;;24.00;32.88
54455;BME280;40364;52.270;10.546;2024-02-21T05:22:36;100808.78;;;23.49;33.89
54455;BME280;40364;52.270;10.546;2024-02-21T05:25:03;100815.78;;;25.18;31.72
54455;BME280;40364;52.270;10.546;2024-02-21T05:27:30;100807.09;;;23.55;33.70
54455;BME280;40364;52.270;10.546;2024-02-21T05:29:56;100802.28;;;23.48;34.17
54455;BME280;40364;52.270;10.546;2024-02-21T05:32:25;100818.28;;;23.69;34.50
54455;BME280;40364;52.270;10.546;2024-02-21T05:34:52;100805.50;;;24.35;32.66
54455;BME280;40364;52.270;10.546;2024-02-21T05:37:18;100811.19;;;21.75;36.42
54455;BME280;40364;52.270;10.546;2024-02-21T05:39:45;100797.72;;;22.45;35.89
54455;BME280;40364;52.270;10.546;2024-02-21T05:42:12;100796.88;;;24.15;33.02
54455;BME280;40364;52.270;10.546;2024-02-21T05:44:39;100794.13;;;23.54;34.03
54455;BME280;40364;52.270;10.546;2024-02-21T05:47:05;100790.81;;;22.50;35.84
54455;BME280;40364;52.270;10.546;2024-02-21T05:49:36;100791.81;;;24.96;32.76
54455;BME280;40364;52.270;10.546;2024-02-21T05:52:03;100790.72;;;22.98;35.25
54455;BME280;40364;52.270;10.546;2024-02-21T05:54:31;100791.19;;;21.38;37.66
54455;BME280;40364;52.270;10.546;2024-02-21T05:56:57;100781.50;;;21.28;37.44
54455;BME280;40364;52.270;10.546;2024-02-21T05:59:24;100782.94;;;22.65;35.92
54455;BME280;40364;52.270;10.546;2024-02-21T06:01:55;100786.38;;;23.55;34.56
54455;BME280;40364;52.270;10.546;2024-02-21T06:04:23;100788.50;;;21.75;37.33
54455;BME280;40364;52.270;10.546;2024-02-21T06:06:51;100784.81;;;23.50;34.84
54455;BME280;40364;52.270;10.546;2024-02-21T06:09:17;100765.72;;;23.50;34.51
54455;BME280;40364;52.270;10.546;2024-02-21T06:11:44;100769.75;;;21.30;38.30
54455;BME280;40364;52.270;10.546;2024-02-21T06:14:11;100764.13;;;21.23;37.97
54455;BME280;40364;52.270;10.546;2024-02-21T06:16:38;100771.81;;;21.11;38.04
54455;BME280;40364;52.270;10.546;2024-02-21T06:19:04;100762.50;;;21.91;37.31
54455;BME280;40364;52.270;10.546;2024-02-21T06:21:31;100764.13;;;21.23;38.75
54455;BME280;40364;52.270;10.546;2024-02-21T06:23:59;100762.09;;;22.41;37.79
54455;BME280;40364;52.270;10.546;2024-02-21T06:26:26;100756.06;;;21.07;38.71
54455;BME280;40364;52.270;10.546;2024-02-21T06:28:53;100763.47;;;21.67;38.40
54455;BME280;40364;52.270;10.546;2024-02-21T06:31:19;100765.28;;;21.36;38.62
54455;BME280;40364;52.270;10.546;2024-02-21T06:33:46;100751.06;;;22.05;36.50
54455;BME280;40364;52.270;10.546;2024-02-21T06:36:13;100748.09;;;21.64;37.83
54455;BME280;40364;52.270;10.546;2024-02-21T06:38:39;100756.34;;;22.03;37.28
54455;BME280;40364;52.270;10.546;2024-02-21T06:41:14;100746.88;;;22.21;37.52
54455;BME280;40364;52.270;10.546;2024-02-21T06:43:41;100754.72;;;21.40;37.94
54455;BME280;40364;52.270;10.546;2024-02-21T06:46:08;100746.53;;;21.52;38.46
54455;BME280;40364;52.270;10.546;2024-02-21T06:48:34;100752.59;;;21.58;37.98
54455;BME280;40364;52.270;10.546;2024-02-21T06:51:01;100747.31;;;20.51;39.64
54455;BME280;40364;52.270;10.546;2024-02-21T06:53:28;100736.84;;;22.54;36.31
54455;BME280;40364;52.270;10.546;2024-02-21T06:55:55;100740.19;;;22.41;36.48
54455;BME280;40364;52.270;10.546;2024-02-21T06:58:23;100732.19;;;22.70;37.22
54455;BME280;40364;52.270;10.546;2024-02-21T07:00:50;100742.44;;;20.77;39.17
54455;BME280;40364;52.270;10.546;2024-02-21T07:03:17;100739.94;;;21.73;37.83
54455;BME280;40364;52.270;10.546;2024-02-21T07:05:43;100746.44;;;23.35;34.49
54455;BME280;40364;52.270;10.546;2024-02-21T07:08:10;100740.63;;;21.88;37.47
54455;BME280;40364;52.270;10.546;2024-02-21T07:10:36;100739.34;;;23.20;34.70
54455;BME280;40364;52.270;10.546;2024-02-21T07:13:03;100746.56;;;23.24;34.72
54455;BME280;40364;52.270;10.546;2024-02-21T07:15:31;100748.13;;;23.86;34.72
54455;BME280;40364;52.270;10.546;2024-02-21T07:17:58;100748.81;;;22.68;36.09
54455;BME280;40364;52.270;10.546;2024-02-21T07:20:25;100751.44;;;23.24;35.06
54455;BME280;40364;52.270;10.546;2024-02-21T07:22:52;100758.72;;;25.58;31.63
54455;BME280;40364;52.270;10.546;2024-02-21T07:25:18;100750.25;;;22.49;35.87
54455;BME280;40364;52.270;10.546;2024-02-21T07:27:45;100760.22;;;22.65;35.67
54455;BME280;40364;52.270;10.546;2024-02-21T07:30:12;100758.44;;;24.50;33.30
54455;BME280;40364;52.270;10.546;2024-02-21T07:32:40;100760.63;;;23.92;34.52
54455;BME280;40364;52.270;10.546;2024-02-21T07:35:08;100762.50;;;21.88;37.97
54455;BME280;40364;52.270;10.546;2024-02-21T07:37:36;100763.09;;;23.63;34.78
54455;BME280;40364;52.270;10.546;2024-02-21T07:40:03;100759.38;;;22.30;36.52
54455;BME280;40364;52.270;10.546;2024-02-21T07:42:30;100763.00;;;20.88;38.74
54455;BME280;40364;52.270;10.546;2024-02-21T07:44:57;100757.28;;;22.79;35.28
54455;BME280;40364;52.270;10.546;2024-02-21T07:47:23;100766.03;;;23.26;35.27
54455;BME280;40364;52.270;10.546;2024-02-21T07:49:51;100750.75;;;24.27;34.43
54455;BME280;40364;52.270;10.546;2024-02-21T07:52:18;100760.16;;;25.10;31.97
54455;BME280;40364;52.270;10.546;2024-02-21T07:54:45;100759.34;;;22.71;35.60
54455;BME280;40364;52.270;10.546;2024-02-21T07:57:12;100748.28;;;22.43;36.03
54455;BME280;40364;52.270;10.546;2024-02-21T07:59:38;100754.47;;;23.09;35.00
54455;BME280;40364;52.270;10.546;2024-02-21T08:02:05;100748.53;;;22.18;36.47
54455;BME280;40364;52.270;10.546;2024-02-21T08:04:32;100749.25;;;23.04;34.88
54455;BME280;40364;52.270;10.546;2024-02-21T08:07:00;100757.28;;;23.13;35.70
54455;BME280;40364;52.270;10.546;2024-02-21T08:09:29;100754.13;;;23.92;33.88
54455;BME280;40364;52.270;10.546;2024-02-21T08:11:56;100757.56;;;24.76;32.77
54455;BME280;40364;52.270;10.546;2024-02-21T08:14:23;100752.06;;;23.38;34.89
54455;BME280;40364;52.270;10.546;2024-02-21T08:16:50;100759.69;;;23.75;33.76
54455;BME280;40364;52.270;10.546;2024-02-21T08:19:18;100752.31;;;23.21;35.03
54455;BME280;40364;52.270;10.546;2024-02-21T08:21:45;100746.25;;;22.43;36.33
54455;BME280;40364;52.270;10.546;2024-02-21T08:24:13;100746.72;;;23.74;35.00
54455;BME280;40364;52.270;10.546;2024-02-21T08:26:40;100746.25;;;23.18;34.72
54455;BME280;40364;52.270;10.546;2024-02-21T08:29:07;100749.78;;;24.57;32.38
54455;BME280;40364;52.270;10.546;2024-02-21T08:31:34;100753.38;;;25.60;31.46
54455;BME280;40364;52.270;10.546;2024-02-21T08:34:01;100747.94;;;25.30;31.45
54455;BME280;40364;52.270;10.546;2024-02-21T08:36:29;100763.88;;;25.07;31.69
54455;BME280;40364;52.270;10.546;2024-02-21T08:38:56;100759.59;;;23.52;34.76
54455;BME280;40364;52.270;10.546;2024-02-21T08:41:24;100760.59;;;25.29;32.48
54455;BME280;40364;52.270;10.546;2024-02-21T08:43:51;100759.75;;;23.72;34.44
54455;BME280;40364;52.270;10.546;2024-02-21T08:46:19;100743.59;;;23.65;33.96
54455;BME280;40364;52.270;10.546;2024-02-21T08:48:46;100748.00;;;22.71;35.57
54455;BME280;40364;52.270;10.546;2024-02-21T08:51:13;100745.84;;;25.70;31.35
54455;BME280;40364;52.270;10.546;2024-02-21T08:53:40;100729.41;;;23.89;33.35
54455;BME280;40364;52.270;10.546;2024-02-21T08:56:06;100744.16;;;24.54;33.15
54455;BME280;40364;52.270;10.546;2024-02-21T08:58:36;100738.88;;;25.35;32.61
54455;BME280;40364;52.270;10.546;2024-02-21T09:01:03;100735.06;;;26.59;30.67
54455;BME280;40364;52.270;10.546;2024-02-21T09:03:31;100736.63;;;25.62;31.57
54455;BME280;40364;52.270;10.546;2024-02-21T09:05:58;100732.72;;;24.77;32.43
54455;BME280;40364;52.270;10.546;2024-02-21T09:08:24;100731.56;;;25.34;31.86
54455;BME280;40364;52.270;10.546;2024-02-21T09:10:51;100728.81;;;23.16;34.38
54455;BME280;40364;52.270;10.546;2024-02-21T09:13:18;100726.88;;;23.94;33.66
54455;BME280;40364;52.270;10.546;2024-02-21T09:15:47;100712.94;;;26.30;31.22
54455;BME280;40364;52.270;10.546;2024-02-21T09:18:14;100715.63;;;24.57;32.75
54455;BME280;40364;52.270;10.546;2024-02-21T09:20:40;100712.84;;;24.54;32.23
54455;BME280;40364;52.270;10.546;2024-02-21T09:23:10;100723.09;;;25.10;32.36
54455;BME280;40364;52.270;10.546;2024-02-21T09:25:36;100710.66;;;22.35;35.57
54455;BME280;40364;52.270;10.546;2024-02-21T09:28:03;100704.97;;;24.81;32.33
54455;BME280;40364;52.270;10.546;2024-02-21T09:30:31;100708.50;;;23.75;33.87
54455;BME280;40364;52.270;10.546;2024-02-21T09:32:59;100717.25;;;26.22;31.27
54455;BME280;40364;52.270;10.546;2024-02-21T09:35:26;100712.34;;;23.62;33.60
54455;BME280;40364;52.270;10.546;2024-02-21T09:37:53;100715.47;;;23.13;34.70
54455;BME280;40364;52.270;10.546;2024-02-21T09:40:20;100715.81;;;24.23;33.39
54455;BME280;40364;52.270;10.546;2024-02-21T09:42:47;100720.78;;;25.05;32.14
54455;BME280;40364;52.270;10.546;2024-02-21T09:45:19;100719.47;;;26.14;30.76
54455;BME280;40364;52.270;10.546;2024-02-21T09:47:56;100723.22;;;24.44;32.81
54455;BME280;40364;52.270;10.546;2024-02-21T09:50:27;100711.81;;;23.70;33.38
54455;BME280;40364;52.270;10.546;2024-02-21T09:52:55;100716.06;;;25.35;31.35
54455;BME280;40364;52.270;10.546;2024-02-21T09:55:23;100711.09;;;23.36;33.58
54455;BME280;40364;52.270;10.546;2024-02-21T09:57:51;100715.00;;;25.81;30.44
54455;BME280;40364;52.270;10.546;2024-02-21T10:00:19;100700.00;;;24.85;30.41
54455;BME280;40364;52.270;10.546;2024-02-21T10:02:48;100700.75;;;23.22;33.26
54455;BME280;40364;52.270;10.546;2024-02-21T10:05:15;100697.91;;;25.97;28.78
54455;BME280;40364;52.270;10.546;2024-02-21T10:07:44;100687.84;;;23.95;31.62
54455;BME280;40364;52.270;10.546;2024-02-21T10:10:10;100705.28;;;22.44;31.98
54455;BME280;40364;52.270;10.546;2024-02-21T10:16:05;100703.06;;;26.64;27.92
54455;BME280;40364;52.270;10.546;2024-02-21T10:18:32;100695.13;;;26.10;28.14
54455;BME280;40364;52.270;10.546;2024-02-21T10:21:03;100689.41;;;23.99;30.93
54455;BME280;40364;52.270;10.546;2024-02-21T10:23:41;100686.47;;;23.26;31.65
54455;BME280;40364;52.270;10.546;2024-02-21T10:26:07;100691.44;;;21.61;33.33
54455;BME280;40364;52.270;10.546;2024-02-21T10:38:49;100685.53;;;23.05;32.87
54455;BME280;40364;52.270;10.546;2024-02-21T10:41:19;100684.81;;;22.98;33.41
54455;BME280;40364;52.270;10.546;2024-02-21T10:43:50;100681.19;;;24.28;31.31
54455;BME280;40364;52.270;10.546;2024-02-21T10:46:19;100686.53;;;24.23;31.38
54455;BME280;40364;52.270;10.546;2024-02-21T10:48:47;100688.38;;;24.56;30.26
54455;BME280;40364;52.270;10.546;2024-02-21T10:51:16;100668.16;;;23.57;32.27
54455;BME280;40364;52.270;10.546;2024-02-21T10:53:45;100659.22;;;25.64;29.63
54455;BME280;40364;52.270;10.546;2024-02-21T10:56:28;100652.81;;;26.21;28.45
54455;BME280;40364;52.270;10.546;2024-02-21T10:58:57;100643.56;;;26.17;28.75
54455;BME280;40364;52.270;10.546;2024-02-21T11:01:24;100648.53;;;25.32;29.07
54455;BME280;40364;52.270;10.546;2024-02-21T11:03:53;100639.75;;;24.04;31.31
54455;BME280;40364;52.270;10.546;2024-02-21T11:06:21;100640.50;;;24.08;30.95
54455;BME280;40364;52.270;10.546;2024-02-21T11:08:59;100639.88;;;26.62;27.96
54455;BME280;40364;52.270;10.546;2024-02-21T11:11:27;100639.06;;;25.18;29.29
54455;BME280;40364;52.270;10.546;2024-02-21T11:14:04;100616.56;;;27.68;26.02
54455;BME280;40364;52.270;10.546;2024-02-21T11:16:35;100621.84;;;24.86;29.54
54455;BME280;40364;52.270;10.546;2024-02-21T11:19:07;100609.16;;;24.71;29.93
54455;BME280;40364;52.270;10.546;2024-02-21T11:21:34;100605.25;;;23.78;30.60
54455;BME280;40364;52.270;10.546;2024-02-21T11:24:01;100603.22;;;24.81;28.94
54455;BME280;40364;52.270;10.546;2024-02-21T11:26:30;100592.75;;;25.47;28.64
54455;BME280;40364;52.270;10.546;2024-02-21T11:28:57;100582.44;;;24.25;30.04
54455;BME280;40364;52.270;10.546;2024-02-21T11:31:25;100580.84;;;23.31;30.65
54455;BME280;40364;52.270;10.546;2024-02-21T11:33:53;100577.88;;;24.08;30.21
54455;BME280;40364;52.270;10.546;2024-02-21T11:36:26;100568.78;;;25.61;28.28
54455;BME280;40364;52.270;10.546;2024-02-21T11:38:53;100566.19;;;25.01;27.93
54455;BME280;40364;52.270;10.546;2024-02-21T11:41:20;100560.31;;;24.13;29.79
54455;BME280;40364;52.270;10.546;2024-02-21T11:43:49;100553.63;;;25.47;28.62
54455;BME280;40364;52.270;10.546;2024-02-21T11:46:17;100547.88;;;23.60;30.46
54455;BME280;40364;52.270;10.546;2024-02-21T11:48:44;100548.03;;;24.75;29.34
54455;BME280;40364;52.270;10.546;2024-02-21T11:51:21;100542.16;;;25.51;27.90
54455;BME280;40364;52.270;10.546;2024-02-21T11:53:50;100524.84;;;25.09;27.51
54455;BME280;40364;52.270;10.546;2024-02-21T11:56:17;100527.91;;;25.35;28.20
54455;BME280;40364;52.270;10.546;2024-02-21T11:58:45;100527.38;;;24.71;29.47
54455;BME280;40364;52.270;10.546;2024-02-21T12:01:14;100520.41;;;25.25;28.57
54455;BME280;40364;52.270;10.546;2024-02-21T12:03:42;100511.47;;;25.71;28.19
54455;BME280;40364;52.270;10.546;2024-02-21T12:06:15;100515.28;;;24.47;29.29
54455;BME280;40364;52.270;10.546;2024-02-21T12:08:45;100494.97;;;24.81;28.80
54455;BME280;40364;52.270;10.546;2024-02-21T12:11:21;100493.88;;;26.85;25.57
54455;BME280;40364;52.270;10.546;2024-02-21T12:13:58;100495.41;;;24.64;28.85
54455;BME280;40364;52.270;10.546;2024-02-21T12:16:27;100499.91;;;24.25;29.73
54455;BME280;40364;52.270;10.546;2024-02-21T12:18:55;100489.19;;;24.69;28.58
54455;BME280;40364;52.270;10.546;2024-02-21T12:21:24;100492.97;;;25.47;28.36
54455;BME280;40364;52.270;10.546;2024-02-21T12:23:50;100481.06;;;25.36;27.72
54455;BME280;40364;52.270;10.546;2024-02-21T12:26:17;100487.44;;;24.75;27.74
54455;BME280;40364;52.270;10.546;2024-02-21T12:28:44;100483.78;;;24.74;28.12
54455;BME280;40364;52.270;10.546;2024-02-21T12:31:11;100484.00;;;25.32;28.03
54455;BME280;40364;52.270;10.546;2024-02-21T12:33:39;100480.59;;;26.11;27.50
54455;BME280;40364;52.270;10.546;2024-02-21T12:36:06;100471.75;;;25.93;26.97
54455;BME280;40364;52.270;10.546;2024-02-21T12:38:34;100465.31;;;26.18;26.29
54455;BME280;40364;52.270;10.546;2024-02-21T12:41:01;100467.28;;;26.21;26.48
54455;BME280;40364;52.270;10.546;2024-02-21T12:43:28;100470.34;;;23.79;29.05
54455;BME280;40364;52.270;10.546;2024-02-21T12:45:58;100469.09;;;24.40;28.94
54455;BME280;40364;52.270;10.546;2024-02-21T12:48:25;100469.53;;;24.18;28.79
54455;BME280;40364;52.270;10.546;2024-02-21T12:50:53;100454.28;;;24.65;29.12
54455;BME280;40364;52.270;10.546;2024-02-21T12:53:20;100461.88;;;24.35;29.09
54455;BME280;40364;52.270;10.546;2024-02-21T12:55:48;100456.44;;;24.93;28.47
54455;BME280;40364;52.270;10.546;2024-02-21T12:58:18;100451.25;;;24.56;28.55
54455;BME280;40364;52.270;10.546;2024-02-21T13:00:48;100443.81;;;25.27;27.72